Time;durP1;ratioP1;P1;durP2;ratioP2;P2;SDS_P1;SDS_P2;PMS_P1;PMS_P2;Temp;Humidity;BMP_temperature;BMP_pressure;BME280_temperature;BME280_humidity;BME280_pressure;Samples;Min_cycle;Max_cycle;Signal;HPM_P1;HPM_P2
2022/07/15 00:01:58;;;;;;;4.97;4.53;;;;;;;;;;4876547;29;20148;-76
2022/07/15 00:04:24;;;;;;;5.75;5.25;;;;;;;;;;4876197;29;20117;-76
2022/07/15 00:06:50;;;;;;;5.53;5.15;;;;;;;;;;4875357;29;20060;-77
2022/07/15 00:09:16;;;;;;;8.27;5.97;;;;;;;;;;4875023;29;20064;-76
2022/07/15 00:11:41;;;;;;;6.43;5.82;;;;;;;;;;4859595;29;20052;-76
2022/07/15 00:14:07;;;;;;;6.45;5.72;;;;;;;;;;4875817;29;20044;-76
2022/07/15 00:16:34;;;;;;;6.38;5.85;;;;;;;;;;4863384;29;20108;-77
2022/07/15 00:18:59;;;;;;;6.57;6.07;;;;;;;;;;4885024;29;20044;-76
2022/07/15 00:21:25;;;;;;;5.53;5.15;;;;;;;;;;4876201;29;20044;-76
2022/07/15 00:23:51;;;;;;;5.85;5.40;;;;;;;;;;4876283;29;20124;-75
2022/07/15 00:26:17;;;;;;;6.07;5.03;;;;;;;;;;4859373;29;20514;-75
2022/07/15 00:28:43;;;;;;;5.00;4.70;;;;;;;;;;4874917;29;20068;-77
2022/07/15 00:31:09;;;;;;;5.53;5.13;;;;;;;;;;4874754;29;20076;-74
2022/07/15 00:33:35;;;;;;;5.93;5.43;;;;;;;;;;4859384;29;20129;-76
2022/07/15 00:36:01;;;;;;;7.72;5.53;;;;;;;;;;4876241;29;20058;-74
2022/07/15 00:56:17;;;;;;;3.80;3.60;;;;;;;;;;4875930;29;20166;-76
2022/07/15 00:58:43;;;;;;;12.00;4.13;;;;;;;;;;4862718;29;20056;-76
2022/07/15 01:01:10;;;;;;;3.55;3.35;;;;;;;;;;4879360;29;20052;-75
2022/07/15 01:03:36;;;;;;;4.25;3.95;;;;;;;;;;4879309;29;20113;-75
2022/07/15 01:06:02;;;;;;;3.85;3.60;;;;;;;;;;4879353;29;20530;-76
2022/07/15 01:08:28;;;;;;;6.15;3.40;;;;;;;;;;4862617;29;20540;-75
2022/07/15 01:10:54;;;;;;;4.90;3.20;;;;;;;;;;4879207;29;20076;-76
2022/07/15 01:13:20;;;;;;;3.97;3.67;;;;;;;;;;4879128;29;20087;-75
2022/07/15 01:15:46;;;;;;;7.40;3.80;;;;;;;;;;4862522;29;20041;-76
2022/07/15 01:18:12;;;;;;;3.60;3.30;;;;;;;;;;4862184;29;20544;-77
2022/07/15 01:20:41;;;;;;;3.70;3.40;;;;;;;;;;4862467;29;20055;-76
2022/07/15 01:23:07;;;;;;;6.85;3.67;;;;;;;;;;4862141;29;20517;-75
2022/07/15 01:25:44;;;;;;;3.33;3.13;;;;;;;;;;4879196;29;20060;-75
2022/07/15 01:28:11;;;;;;;4.60;3.60;;;;;;;;;;4862240;29;20639;-76
2022/07/15 01:30:38;;;;;;;5.82;3.28;;;;;;;;;;4862079;29;20467;-76
2022/07/15 01:33:06;;;;;;;4.20;3.80;;;;;;;;;;4862105;29;20522;-76
2022/07/15 01:35:32;;;;;;;3.35;3.15;;;;;;;;;;4862001;29;20514;-76
2022/07/15 01:37:58;;;;;;;3.72;3.42;;;;;;;;;;4846737;29;20092;-77
2022/07/15 01:40:24;;;;;;;3.88;3.55;;;;;;;;;;4878522;29;20572;-76
2022/07/15 01:42:52;;;;;;;3.30;3.10;;;;;;;;;;4862244;29;20080;-76
2022/07/15 01:45:18;;;;;;;4.88;3.40;;;;;;;;;;4861750;29;20049;-77
2022/07/15 01:47:47;;;;;;;3.60;3.40;;;;;;;;;;4862220;29;20061;-77
2022/07/15 01:50:19;;;;;;;5.22;3.80;;;;;;;;;;4876757;29;20060;-75
2022/07/15 01:52:57;;;;;;;4.15;3.28;;;;;;;;;;4864179;29;20617;-74
2022/07/15 01:55:26;;;;;;;7.60;3.53;;;;;;;;;;4863383;29;20060;-76
2022/07/15 01:57:53;;;;;;;5.50;3.55;;;;;;;;;;4863935;29;20436;-75
2022/07/15 02:00:19;;;;;;;3.67;3.25;;;;;;;;;;4855796;29;20041;-76
2022/07/15 02:02:47;;;;;;;5.57;3.47;;;;;;;;;;4870989;29;20049;-76
2022/07/15 02:05:17;;;;;;;3.50;3.20;;;;;;;;;;4865926;29;20528;-76
2022/07/15 02:07:43;;;;;;;3.55;3.30;;;;;;;;;;4866336;29;20553;-75
2022/07/15 02:10:13;;;;;;;6.38;3.63;;;;;;;;;;4871610;29;20041;-75
2022/07/15 02:12:43;;;;;;;4.68;3.70;;;;;;;;;;4863267;29;20512;-75
2022/07/15 02:15:10;;;;;;;5.13;3.20;;;;;;;;;;4846222;29;20045;-75
2022/07/15 02:17:48;;;;;;;3.55;3.30;;;;;;;;;;4863125;29;20053;-76
2022/07/15 02:20:15;;;;;;;3.70;3.40;;;;;;;;;;4861489;29;20069;-75
2022/07/15 02:22:41;;;;;;;5.63;3.30;;;;;;;;;;4878001;29;20081;-75
2022/07/15 02:25:07;;;;;;;4.20;3.28;;;;;;;;;;4861227;29;20434;-76
2022/07/15 02:27:33;;;;;;;3.50;3.20;;;;;;;;;;4861102;29;20546;-75
2022/07/15 02:29:59;;;;;;;4.25;3.20;;;;;;;;;;4876702;29;20056;-76
2022/07/15 02:32:31;;;;;;;3.45;3.25;;;;;;;;;;4860970;29;20120;-75
2022/07/15 02:34:58;;;;;;;3.92;3.63;;;;;;;;;;4861215;29;20509;-74
2022/07/15 02:37:25;;;;;;;4.32;3.92;;;;;;;;;;4861128;29;20185;-74
2022/07/15 02:39:52;;;;;;;4.32;3.20;;;;;;;;;;4860957;29;20037;-75
2022/07/15 02:42:18;;;;;;;3.38;3.13;;;;;;;;;;4845609;29;20056;-76
2022/07/15 02:44:44;;;;;;;3.25;3.05;;;;;;;;;;4845342;29;20125;-75
2022/07/15 02:47:10;;;;;;;4.90;3.25;;;;;;;;;;4861176;29;20093;-74
2022/07/15 02:49:38;;;;;;;3.22;3.03;;;;;;;;;;4860821;29;20041;-75
2022/07/15 02:52:04;;;;;;;3.13;3.03;;;;;;;;;;4845437;29;20053;-76
2022/07/15 02:54:35;;;;;;;3.53;3.30;;;;;;;;;;4845005;29;20045;-76
2022/07/15 02:57:01;;;;;;;5.32;3.03;;;;;;;;;;4877661;29;20048;-75
2022/07/15 02:59:27;;;;;;;7.03;3.03;;;;;;;;;;4860403;29;20131;-76
2022/07/15 03:01:55;;;;;;;4.68;3.30;;;;;;;;;;4860139;29;20093;-77
2022/07/15 03:04:23;;;;;;;4.57;3.15;;;;;;;;;;4861135;29;20057;-76
2022/07/15 03:06:49;;;;;;;5.03;3.60;;;;;;;;;;4862356;29;20109;-75
2022/07/15 03:09:18;;;;;;;3.17;2.97;;;;;;;;;;4861629;29;20262;-77
2022/07/15 03:11:44;;;;;;;5.00;3.22;;;;;;;;;;4845233;29;20080;-75
2022/07/15 03:14:10;;;;;;;6.43;3.50;;;;;;;;;;4861393;29;20102;-76
2022/07/15 03:16:36;;;;;;;6.28;3.00;;;;;;;;;;4862350;29;20048;-75
2022/07/15 03:19:02;;;;;;;3.75;2.88;;;;;;;;;;4863213;29;20041;-75
2022/07/15 03:21:28;;;;;;;3.70;3.00;;;;;;;;;;4861715;29;20467;-73
2022/07/15 03:23:54;;;;;;;3.33;3.13;;;;;;;;;;4877191;29;20536;-76
2022/07/15 03:26:20;;;;;;;3.55;3.08;;;;;;;;;;4860202;29;20053;-77
2022/07/15 03:28:47;;;;;;;4.78;3.20;;;;;;;;;;4860250;29;20049;-76
2022/07/15 03:31:14;;;;;;;3.20;2.90;;;;;;;;;;4860589;29;20065;-76
2022/07/15 03:33:41;;;;;;;2.92;2.72;;;;;;;;;;4860453;29;20086;-75
2022/07/15 03:36:08;;;;;;;6.45;2.92;;;;;;;;;;4862928;29;20045;-75
2022/07/15 03:38:34;;;;;;;3.03;2.83;;;;;;;;;;4861206;29;20037;-75
2022/07/15 03:41:00;;;;;;;3.20;3.00;;;;;;;;;;4876390;29;20430;-75
2022/07/15 03:43:29;;;;;;;3.08;2.78;;;;;;;;;;4859677;29;20048;-76
2022/07/15 03:45:55;;;;;;;3.17;2.92;;;;;;;;;;4859978;29;20056;-77
2022/07/15 03:48:22;;;;;;;2.90;2.70;;;;;;;;;;4859503;29;20048;-75
2022/07/15 03:50:48;;;;;;;3.15;2.53;;;;;;;;;;4859675;29;20053;-76
2022/07/15 03:53:14;;;;;;;4.45;2.75;;;;;;;;;;4859940;29;20074;-77
2022/07/15 03:55:41;;;;;;;4.28;2.40;;;;;;;;;;4859461;29;20542;-75
2022/07/15 03:58:07;;;;;;;2.50;2.30;;;;;;;;;;4876869;29;20060;-75
2022/07/15 04:00:34;;;;;;;3.15;2.10;;;;;;;;;;4847270;29;20044;-77
2022/07/15 04:03:00;;;;;;;2.67;2.20;;;;;;;;;;4868805;29;20902;-75
2022/07/15 04:05:26;;;;;;;2.17;2.08;;;;;;;;;;4876603;29;20037;-78
2022/07/15 04:07:52;;;;;;;1.90;1.70;;;;;;;;;;4876451;29;20045;-79
2022/07/15 04:10:18;;;;;;;2.22;2.13;;;;;;;;;;4859657;29;20117;-78
2022/07/15 04:12:44;;;;;;;2.20;2.10;;;;;;;;;;4875839;29;20514;-76
2022/07/15 04:15:10;;;;;;;2.33;1.90;;;;;;;;;;4876262;29;20120;-77
2022/07/15 04:17:36;;;;;;;2.10;1.90;;;;;;;;;;4859318;29;20498;-78
2022/07/15 04:20:02;;;;;;;2.13;2.00;;;;;;;;;;4876054;29;20124;-77
2022/07/15 04:22:28;;;;;;;2.45;1.90;;;;;;;;;;4859290;29;20590;-77
2022/07/15 04:24:54;;;;;;;7.40;2.03;;;;;;;;;;4856740;29;20052;-75
2022/07/15 04:27:20;;;;;;;2.05;1.90;;;;;;;;;;4859423;29;20585;-77
2022/07/15 04:29:46;;;;;;;3.78;1.80;;;;;;;;;;4875781;29;20079;-77
2022/07/15 04:32:13;;;;;;;1.70;1.60;;;;;;;;;;4859432;29;20064;-76
2022/07/15 04:34:44;;;;;;;3.00;2.05;;;;;;;;;;4844617;29;20417;-77
2022/07/15 04:37:10;;;;;;;1.55;1.50;;;;;;;;;;4876177;29;20136;-76
2022/07/15 04:39:41;;;;;;;2.25;1.63;;;;;;;;;;4859921;29;20546;-77
2022/07/15 04:42:07;;;;;;;1.98;1.88;;;;;;;;;;4859455;29;20061;-78
2022/07/15 04:44:35;;;;;;;8.07;2.05;;;;;;;;;;4859194;29;20129;-77
2022/07/15 04:47:05;;;;;;;2.00;1.80;;;;;;;;;;4859481;29;20469;-77
2022/07/15 04:52:22;;;;;;;1.70;1.60;;;;;;;;;;4859245;29;20057;-77
2022/07/15 04:54:53;;;;;;;1.70;1.60;;;;;;;;;;4859290;29;20598;-77
2022/07/15 04:57:19;;;;;;;1.67;1.52;;;;;;;;;;4876190;29;20053;-77
2022/07/15 04:59:45;;;;;;;3.40;1.60;;;;;;;;;;4875987;29;20042;-77
2022/07/15 05:02:16;;;;;;;2.60;1.63;;;;;;;;;;4876996;29;20057;-77
2022/07/15 05:04:44;;;;;;;3.28;1.48;;;;;;;;;;4861615;29;20037;-77
2022/07/15 05:07:11;;;;;;;2.53;1.80;;;;;;;;;;4861546;29;20056;-79
2022/07/15 05:09:38;;;;;;;2.67;1.60;;;;;;;;;;4861923;29;20049;-78
2022/07/15 05:12:05;;;;;;;2.05;1.60;;;;;;;;;;4878735;29;20057;-77
2022/07/15 05:14:40;;;;;;;6.20;1.80;;;;;;;;;;4866867;29;20052;-76
2022/07/15 05:17:07;;;;;;;2.53;1.80;;;;;;;;;;4865977;29;20056;-77
2022/07/15 05:19:33;;;;;;;1.90;1.80;;;;;;;;;;4861073;29;20126;-77
2022/07/15 05:21:59;;;;;;;1.55;1.55;;;;;;;;;;4828711;29;20044;-78
2022/07/15 05:24:29;;;;;;;2.10;1.75;;;;;;;;;;4844788;29;20048;-76
2022/07/15 05:26:54;;;;;;;1.92;1.83;;;;;;;;;;4862497;29;20051;-76
2022/07/15 05:29:21;;;;;;;2.08;1.60;;;;;;;;;;4862462;29;20063;-75
2022/07/15 05:31:51;;;;;;;2.20;1.90;;;;;;;;;;4862151;29;20095;-77
2022/07/15 05:34:17;;;;;;;1.77;1.70;;;;;;;;;;4862297;29;20576;-77
2022/07/15 05:36:44;;;;;;;3.15;1.70;;;;;;;;;;4846802;29;20105;-76
2022/07/15 05:39:12;;;;;;;2.40;1.58;;;;;;;;;;4862059;29;20460;-77
2022/07/15 05:41:41;;;;;;;5.57;2.05;;;;;;;;;;4878818;29;20364;-75
2022/07/15 05:44:07;;;;;;;2.50;1.77;;;;;;;;;;4862016;29;20053;-78
2022/07/15 05:46:40;;;;;;;2.38;1.90;;;;;;;;;;4846724;29;20048;-77
2022/07/15 05:49:06;;;;;;;1.77;1.67;;;;;;;;;;4862102;29;20048;-78
2022/07/15 05:51:33;;;;;;;1.77;1.67;;;;;;;;;;4862826;29;20593;-78
2022/07/15 05:54:00;;;;;;;1.70;1.60;;;;;;;;;;4886652;29;20045;-77
2022/07/15 05:56:26;;;;;;;1.73;1.45;;;;;;;;;;4854794;29;20442;-77
2022/07/15 05:58:52;;;;;;;1.83;1.70;;;;;;;;;;4861888;29;20425;-78
2022/07/15 06:01:24;;;;;;;1.80;1.70;;;;;;;;;;4846324;29;20083;-77
2022/07/15 06:03:50;;;;;;;2.03;1.45;;;;;;;;;;4861642;29;20201;-78
2022/07/15 06:06:17;;;;;;;1.80;1.65;;;;;;;;;;4861850;29;20056;-76
2022/07/15 06:08:44;;;;;;;1.95;1.55;;;;;;;;;;4861771;29;20057;-79
2022/07/15 06:11:11;;;;;;;1.63;1.50;;;;;;;;;;4861571;29;20181;-76
2022/07/15 06:13:38;;;;;;;1.98;1.40;;;;;;;;;;4846138;29;20045;-78
2022/07/15 06:16:04;;;;;;;1.67;1.58;;;;;;;;;;4861459;29;20053;-77
2022/07/15 06:18:31;;;;;;;1.40;1.40;;;;;;;;;;4861338;29;20124;-76
2022/07/15 06:20:57;;;;;;;1.50;1.40;;;;;;;;;;4846013;29;20057;-78
2022/07/15 06:23:24;;;;;;;1.75;1.65;;;;;;;;;;4861343;29;20068;-76
2022/07/15 06:25:49;;;;;;;7.78;1.55;;;;;;;;;;4860823;29;20049;-76
2022/07/15 06:28:15;;;;;;;3.20;1.50;;;;;;;;;;4861398;29;20076;-77
2022/07/15 06:30:43;;;;;;;4.32;1.40;;;;;;;;;;4877430;29;20476;-76
2022/07/15 06:33:10;;;;;;;2.58;1.90;;;;;;;;;;4861291;29;20144;-76
2022/07/15 06:35:36;;;;;;;5.30;2.08;;;;;;;;;;4830186;29;20467;-77
2022/07/15 06:38:02;;;;;;;1.85;1.30;;;;;;;;;;4861062;29;20078;-76
2022/07/15 06:40:29;;;;;;;1.85;1.33;;;;;;;;;;4861293;29;20117;-76
2022/07/15 06:42:55;;;;;;;3.90;1.70;;;;;;;;;;4860915;29;20049;-75
2022/07/15 06:45:43;;;;;;;2.10;1.90;;;;;;;;;;4876840;29;20049;-75
2022/07/15 06:48:10;;;;;;;3.78;1.80;;;;;;;;;;4860998;29;20594;-77
2022/07/15 06:50:36;;;;;;;4.22;2.00;;;;;;;;;;4860510;29;20117;-76
2022/07/15 06:53:03;;;;;;;1.58;1.40;;;;;;;;;;4860859;29;20041;-75
2022/07/15 06:55:29;;;;;;;1.77;1.67;;;;;;;;;;4860896;29;20284;-76
2022/07/15 06:57:57;;;;;;;1.90;1.80;;;;;;;;;;4861104;29;20048;-77
2022/07/15 07:00:23;;;;;;;1.80;1.65;;;;;;;;;;4845516;29;20029;-75
2022/07/15 07:02:49;;;;;;;3.97;1.98;;;;;;;;;;4877439;29;20048;-75
2022/07/15 07:05:15;;;;;;;2.13;1.60;;;;;;;;;;4860668;29;20056;-76
2022/07/15 07:07:41;;;;;;;3.75;1.90;;;;;;;;;;4877179;29;20494;-76
2022/07/15 07:10:08;;;;;;;1.85;1.80;;;;;;;;;;4845252;29;20095;-77
2022/07/15 07:12:35;;;;;;;2.70;1.92;;;;;;;;;;4845311;29;20056;-76
2022/07/15 07:15:02;;;;;;;1.80;1.70;;;;;;;;;;4860870;29;20037;-75
2022/07/15 07:17:28;;;;;;;2.33;2.00;;;;;;;;;;4877986;29;20049;-76
2022/07/15 07:19:55;;;;;;;2.20;1.90;;;;;;;;;;4877875;29;20055;-76
2022/07/15 07:22:21;;;;;;;2.35;2.15;;;;;;;;;;4860506;29;20151;-74
2022/07/15 07:24:47;;;;;;;1.90;1.80;;;;;;;;;;4876781;29;20052;-76
2022/07/15 07:27:14;;;;;;;1.98;1.77;;;;;;;;;;4860355;29;20045;-75
2022/07/15 07:29:39;;;;;;;2.15;1.98;;;;;;;;;;4876540;29;20124;-76
2022/07/15 07:32:06;;;;;;;2.17;2.08;;;;;;;;;;4876716;29;20108;-75
2022/07/15 07:34:32;;;;;;;2.40;2.20;;;;;;;;;;4860069;29;20041;-76
2022/07/15 07:36:58;;;;;;;3.30;1.90;;;;;;;;;;4876598;29;20068;-75
2022/07/15 07:39:24;;;;;;;3.10;1.90;;;;;;;;;;4860021;29;20048;-76
2022/07/15 07:41:53;;;;;;;5.15;2.00;;;;;;;;;;4876533;29;20053;-75
2022/07/15 07:44:19;;;;;;;4.95;2.10;;;;;;;;;;4877297;29;20114;-76
2022/07/15 07:46:46;;;;;;;3.13;1.80;;;;;;;;;;4879127;29;20053;-76
2022/07/15 07:49:12;;;;;;;2.30;2.20;;;;;;;;;;4878680;29;20033;-76
2022/07/15 07:51:40;;;;;;;3.28;2.20;;;;;;;;;;4859902;29;20068;-74
2022/07/15 07:54:06;;;;;;;2.30;2.20;;;;;;;;;;4860526;29;20059;-75
2022/07/15 07:56:33;;;;;;;2.50;2.22;;;;;;;;;;4859922;29;20056;-76
2022/07/15 07:58:59;;;;;;;2.80;2.30;;;;;;;;;;4859575;29;20450;-74
2022/07/15 08:01:25;;;;;;;3.17;2.10;;;;;;;;;;4859736;29;20073;-76
2022/07/15 08:03:51;;;;;;;2.72;2.20;;;;;;;;;;4859683;29;20113;-76
2022/07/15 08:06:17;;;;;;;2.70;2.00;;;;;;;;;;4844544;29;20094;-74
2022/07/15 08:08:44;;;;;;;2.58;2.10;;;;;;;;;;4876331;29;20426;-76
2022/07/15 08:11:10;;;;;;;4.55;2.15;;;;;;;;;;4859845;29;20076;-76
2022/07/15 08:13:36;;;;;;;3.63;2.03;;;;;;;;;;4859972;29;20048;-75
2022/07/15 08:16:02;;;;;;;2.40;2.20;;;;;;;;;;4876651;29;20041;-75
2022/07/15 08:18:28;;;;;;;2.28;2.15;;;;;;;;;;4860196;29;20045;-77
2022/07/15 08:20:54;;;;;;;2.25;2.15;;;;;;;;;;4876861;29;20044;-76
2022/07/15 08:23:21;;;;;;;2.22;2.00;;;;;;;;;;4882953;29;20052;-75
2022/07/15 08:25:47;;;;;;;1.88;1.77;;;;;;;;;;4866241;29;20094;-76
2022/07/15 08:28:13;;;;;;;1.80;1.70;;;;;;;;;;4861688;29;20517;-75
2022/07/15 08:30:39;;;;;;;3.83;2.00;;;;;;;;;;4876734;29;20440;-77
2022/07/15 08:33:05;;;;;;;2.15;1.92;;;;;;;;;;4875359;29;20253;-76
2022/07/15 08:35:31;;;;;;;2.13;2.03;;;;;;;;;;4876215;29;20044;-76
2022/07/15 08:37:57;;;;;;;1.80;1.70;;;;;;;;;;4876324;29;20458;-77
2022/07/15 08:40:24;;;;;;;1.75;1.73;;;;;;;;;;4860527;29;20041;-77
2022/07/15 08:42:50;;;;;;;2.22;2.13;;;;;;;;;;4877004;29;20597;-78
2022/07/15 08:45:16;;;;;;;2.47;1.70;;;;;;;;;;4859467;29;20137;-76
2022/07/15 08:47:43;;;;;;;1.85;1.77;;;;;;;;;;4859196;29;20043;-75
2022/07/15 08:50:09;;;;;;;3.97;1.98;;;;;;;;;;4859524;29;20064;-76
2022/07/15 08:52:35;;;;;;;2.45;1.83;;;;;;;;;;4876139;29;20064;-76
2022/07/15 08:55:01;;;;;;;2.00;1.90;;;;;;;;;;4843429;29;20049;-76
2022/07/15 08:57:29;;;;;;;4.03;1.80;;;;;;;;;;4875755;29;20053;-74
2022/07/15 08:59:55;;;;;;;1.92;1.75;;;;;;;;;;4877642;29;20105;-76
2022/07/15 09:02:21;;;;;;;3.58;1.90;;;;;;;;;;4879426;29;20467;-75
2022/07/15 09:05:05;;;;;;;3.03;2.83;;;;;;;;;;4879225;29;20041;-74
2022/07/15 09:07:37;;;;;;;3.10;1.83;;;;;;;;;;4879414;29;20049;-75
2022/07/15 09:10:03;;;;;;;2.15;2.00;;;;;;;;;;4862383;29;20049;-73
2022/07/15 09:12:32;;;;;;;2.17;2.00;;;;;;;;;;4862658;29;20117;-75
2022/07/15 09:14:57;;;;;;;5.65;1.98;;;;;;;;;;4862230;29;20395;-75
2022/07/15 09:17:23;;;;;;;2.20;2.00;;;;;;;;;;4879399;29;20052;-74
2022/07/15 09:19:59;;;;;;;2.22;1.63;;;;;;;;;;4878911;29;20037;-75
2022/07/15 09:22:26;;;;;;;2.42;1.90;;;;;;;;;;4862411;29;20125;-75
2022/07/15 09:25:08;;;;;;;1.85;1.67;;;;;;;;;;4878709;29;20041;-74
2022/07/15 09:27:36;;;;;;;4.05;2.03;;;;;;;;;;4878912;29;20053;-75
2022/07/15 09:36:03;;;;;;;4.32;2.08;;;;;;;;;;4864589;29;20448;-75
2022/07/15 09:38:41;;;;;;;2.53;1.88;;;;;;;;;;4880452;29;20117;-75
2022/07/15 09:41:10;;;;;;;1.70;1.60;;;;;;;;;;4879735;29;20049;-74
2022/07/15 09:43:46;;;;;;;2.45;1.80;;;;;;;;;;4879094;29;20425;-75
2022/07/15 09:46:13;;;;;;;3.42;1.70;;;;;;;;;;4878568;29;20054;-76
2022/07/15 09:48:43;;;;;;;1.63;1.52;;;;;;;;;;4878779;29;20506;-75
2022/07/15 09:51:09;;;;;;;1.95;1.80;;;;;;;;;;4846544;29;20064;-74
2022/07/15 09:53:35;;;;;;;1.85;1.75;;;;;;;;;;4877487;29;20053;-75
2022/07/15 09:56:02;;;;;;;3.72;1.88;;;;;;;;;;4878003;29;20053;-74
2022/07/15 09:58:28;;;;;;;3.28;2.08;;;;;;;;;;4862013;29;20056;-74
2022/07/15 10:00:54;;;;;;;2.00;1.90;;;;;;;;;;4861415;29;20510;-75
2022/07/15 10:03:22;;;;;;;2.28;1.90;;;;;;;;;;4862032;29;20050;-74
2022/07/15 10:05:53;;;;;;;2.97;1.80;;;;;;;;;;4878136;29;20075;-75
2022/07/15 10:08:19;;;;;;;4.38;1.65;;;;;;;;;;4878492;29;20445;-74
2022/07/15 10:10:45;;;;;;;2.95;2.20;;;;;;;;;;4877453;29;20603;-75
2022/07/15 10:13:20;;;;;;;1.80;1.70;;;;;;;;;;4861541;29;20135;-75
2022/07/15 10:15:58;;;;;;;2.20;2.00;;;;;;;;;;4877781;29;20049;-75
2022/07/15 10:18:42;;;;;;;2.10;2.00;;;;;;;;;;4861392;29;20048;-74
2022/07/15 10:21:11;;;;;;;2.92;1.75;;;;;;;;;;4861340;29;20052;-76
2022/07/15 10:23:42;;;;;;;2.83;2.20;;;;;;;;;;4861378;29;20053;-73
2022/07/15 10:26:08;;;;;;;2.38;1.95;;;;;;;;;;4861014;29;20116;-74
2022/07/15 10:28:42;;;;;;;1.77;1.50;;;;;;;;;;4878116;29;20045;-75
2022/07/15 10:31:21;;;;;;;1.83;1.70;;;;;;;;;;4845319;29;20084;-75
2022/07/15 10:34:03;;;;;;;2.05;1.70;;;;;;;;;;4877839;29;20438;-75
2022/07/15 10:36:46;;;;;;;2.88;1.70;;;;;;;;;;4861115;29;20052;-74
2022/07/15 10:39:12;;;;;;;2.20;2.00;;;;;;;;;;4861189;29;20068;-76
2022/07/15 10:41:51;;;;;;;2.00;1.90;;;;;;;;;;4877863;29;20097;-74
2022/07/15 10:44:17;;;;;;;2.28;1.90;;;;;;;;;;4861463;29;20052;-74
2022/07/15 10:46:43;;;;;;;3.38;1.88;;;;;;;;;;4877845;29;20044;-76
2022/07/15 10:49:09;;;;;;;2.00;1.90;;;;;;;;;;4877484;29;20114;-75
2022/07/15 10:51:35;;;;;;;2.28;2.08;;;;;;;;;;4877381;29;20548;-75
2022/07/15 10:54:04;;;;;;;2.20;1.90;;;;;;;;;;4877432;29;20080;-75
2022/07/15 10:56:34;;;;;;;6.40;1.70;;;;;;;;;;4860740;29;20419;-75
2022/07/15 10:59:07;;;;;;;2.20;2.00;;;;;;;;;;4877366;29;20056;-75
2022/07/15 11:01:33;;;;;;;2.20;2.10;;;;;;;;;;4877457;29;21058;-76
2022/07/15 11:04:14;;;;;;;4.72;2.28;;;;;;;;;;4877260;29;20124;-75
2022/07/15 11:06:59;;;;;;;1.85;1.75;;;;;;;;;;4877249;29;20041;-74
2022/07/15 11:09:45;;;;;;;2.55;1.85;;;;;;;;;;4877543;29;20067;-73
2022/07/15 11:12:14;;;;;;;2.35;2.03;;;;;;;;;;4877075;29;20061;-75
2022/07/15 11:14:42;;;;;;;8.65;2.42;;;;;;;;;;4878071;29;20468;-75
2022/07/15 11:17:08;;;;;;;2.17;2.00;;;;;;;;;;4861503;29;20493;-75
2022/07/15 11:19:34;;;;;;;1.83;1.73;;;;;;;;;;4863505;29;20120;-74
2022/07/15 11:22:03;;;;;;;3.25;1.77;;;;;;;;;;4864821;29;20141;-75
2022/07/15 11:24:29;;;;;;;4.28;1.70;;;;;;;;;;4882749;29;20125;-75
2022/07/15 11:26:55;;;;;;;4.85;1.85;;;;;;;;;;4866882;29;20072;-74
2022/07/15 11:29:21;;;;;;;3.78;1.80;;;;;;;;;;4848996;29;20086;-74
2022/07/15 11:31:47;;;;;;;2.50;1.75;;;;;;;;;;4863546;29;20499;-75
2022/07/15 11:34:14;;;;;;;5.13;1.90;;;;;;;;;;4877806;29;20483;-73
2022/07/15 11:36:40;;;;;;;1.60;1.50;;;;;;;;;;4877028;29;20045;-74
2022/07/15 11:39:06;;;;;;;3.78;1.75;;;;;;;;;;4859434;29;20151;-74
2022/07/15 11:44:32;;;;;;;4.95;1.67;;;;;;;;;;4876868;29;20101;-74
2022/07/15 11:47:01;;;;;;;4.22;1.95;;;;;;;;;;4876664;29;20417;-74
2022/07/15 11:49:39;;;;;;;3.20;2.08;;;;;;;;;;4876685;29;20037;-75
2022/07/15 11:52:06;;;;;;;9.35;2.80;;;;;;;;;;4876172;29;20064;-75
2022/07/15 11:54:32;;;;;;;2.97;2.33;;;;;;;;;;4876458;29;20084;-74
2022/07/15 11:57:02;;;;;;;1.95;1.85;;;;;;;;;;4844228;29;20429;-75
2022/07/15 11:59:28;;;;;;;2.88;2.00;;;;;;;;;;4876727;29;20081;-75
2022/07/15 12:02:10;;;;;;;6.30;2.38;;;;;;;;;;4876041;29;20103;-73
2022/07/15 12:04:36;;;;;;;19.58;2.50;;;;;;;;;;4859851;29;20057;-74
2022/07/15 12:07:02;;;;;;;3.08;2.10;;;;;;;;;;4843951;29;20040;-74
2022/07/15 12:09:38;;;;;;;3.03;1.88;;;;;;;;;;4876272;29;20152;-74
2022/07/15 12:12:04;;;;;;;3.67;2.35;;;;;;;;;;4875951;29;20502;-76
2022/07/15 12:14:30;;;;;;;2.53;2.20;;;;;;;;;;4859449;29;20455;-75
2022/07/15 12:16:56;;;;;;;3.58;2.22;;;;;;;;;;4875831;29;20114;-74
2022/07/15 12:19:26;;;;;;;2.30;2.10;;;;;;;;;;4845959;29;20053;-75
2022/07/15 12:22:04;;;;;;;4.30;1.77;;;;;;;;;;4878261;29;20136;-74
2022/07/15 12:24:38;;;;;;;5.10;2.40;;;;;;;;;;4876186;29;20037;-75
2022/07/15 12:27:04;;;;;;;5.75;2.25;;;;;;;;;;4875810;29;20093;-74
2022/07/15 12:29:31;;;;;;;2.97;2.20;;;;;;;;;;4859269;29;20045;-74
2022/07/15 12:31:57;;;;;;;2.22;2.10;;;;;;;;;;4875615;29;20057;-73
2022/07/15 12:34:43;;;;;;;2.28;1.92;;;;;;;;;;4881501;29;20040;-75
2022/07/15 12:37:09;;;;;;;3.13;2.20;;;;;;;;;;4881652;29;20163;-74
2022/07/15 12:39:52;;;;;;;1.95;1.85;;;;;;;;;;4882125;29;20037;-74
2022/07/15 12:42:18;;;;;;;2.35;1.92;;;;;;;;;;4865382;29;20049;-74
2022/07/15 12:44:44;;;;;;;2.75;2.00;;;;;;;;;;4882235;29;20045;-73
2022/07/15 12:47:10;;;;;;;2.17;1.88;;;;;;;;;;4881720;29;20569;-75
2022/07/15 12:49:52;;;;;;;2.33;1.95;;;;;;;;;;4882268;29;20395;-74
2022/07/15 12:52:22;;;;;;;2.13;1.92;;;;;;;;;;4881888;29;20060;-75
2022/07/15 12:54:48;;;;;;;1.85;1.70;;;;;;;;;;4881828;29;20045;-75
2022/07/15 12:57:26;;;;;;;3.60;2.10;;;;;;;;;;4881728;29;20104;-74
2022/07/15 12:59:57;;;;;;;3.40;1.90;;;;;;;;;;4882064;29;20056;-74
2022/07/15 13:02:23;;;;;;;3.53;2.17;;;;;;;;;;4882042;29;20049;-73
2022/07/15 13:04:49;;;;;;;2.17;2.05;;;;;;;;;;4865303;29;20056;-75
2022/07/15 13:07:15;;;;;;;5.18;1.75;;;;;;;;;;4881606;29;20423;-76
2022/07/15 13:09:41;;;;;;;1.73;1.63;;;;;;;;;;4850054;29;20430;-75
2022/07/15 13:12:08;;;;;;;1.77;1.50;;;;;;;;;;4864720;29;20084;-74
2022/07/15 13:14:35;;;;;;;2.40;2.17;;;;;;;;;;4881820;29;20417;-75
2022/07/15 13:17:00;;;;;;;2.60;1.65;;;;;;;;;;4849404;29;20081;-73
2022/07/15 13:19:26;;;;;;;6.05;1.85;;;;;;;;;;4882076;29;20117;-74
2022/07/15 13:21:52;;;;;;;6.05;1.67;;;;;;;;;;4882096;29;20509;-73
2022/07/15 13:24:18;;;;;;;2.10;1.67;;;;;;;;;;4864956;29;20049;-73
2022/07/15 13:26:44;;;;;;;1.52;1.42;;;;;;;;;;4881642;29;20068;-73
2022/07/15 13:29:10;;;;;;;4.40;1.58;;;;;;;;;;4849220;29;20052;-74
2022/07/15 13:31:36;;;;;;;5.03;1.90;;;;;;;;;;4881639;29;20549;-75
2022/07/15 13:34:02;;;;;;;1.80;1.70;;;;;;;;;;4849806;29;20064;-74
2022/07/15 13:36:28;;;;;;;4.13;1.98;;;;;;;;;;4882168;29;20057;-74
2022/07/15 13:38:54;;;;;;;6.43;1.90;;;;;;;;;;4866306;29;20037;-73
2022/07/15 13:41:20;;;;;;;4.22;1.90;;;;;;;;;;4866287;29;20053;-74
2022/07/15 13:43:46;;;;;;;2.33;1.70;;;;;;;;;;4882665;29;20052;-75
2022/07/15 13:46:11;;;;;;;4.10;1.90;;;;;;;;;;4879686;29;20057;-74
2022/07/15 13:48:37;;;;;;;3.45;1.80;;;;;;;;;;4880987;29;20514;-74
2022/07/15 13:53:48;;;;;;;1.60;1.50;;;;;;;;;;4864481;29;20053;-73
2022/07/15 13:56:14;;;;;;;1.73;1.63;;;;;;;;;;4863456;29;20049;-74
2022/07/15 13:58:39;;;;;;;4.70;1.92;;;;;;;;;;4880697;29;20049;-74
2022/07/15 14:01:06;;;;;;;4.95;1.45;;;;;;;;;;4880655;29;20045;-74
2022/07/15 14:03:32;;;;;;;1.63;1.50;;;;;;;;;;4881133;29;20538;-75
2022/07/15 14:05:58;;;;;;;4.90;1.73;;;;;;;;;;4880172;29;20581;-74
2022/07/15 14:08:24;;;;;;;8.80;2.20;;;;;;;;;;4863779;29;20052;-74
2022/07/15 14:10:50;;;;;;;1.50;1.40;;;;;;;;;;4881892;29;20069;-76
2022/07/15 14:13:16;;;;;;;4.47;1.08;;;;;;;;;;4863521;29;20129;-74
2022/07/15 14:15:42;;;;;;;2.72;1.85;;;;;;;;;;4864183;29;20041;-75
2022/07/15 14:18:07;;;;;;;4.18;1.70;;;;;;;;;;4863298;29;20076;-74
2022/07/15 14:20:34;;;;;;;2.08;1.60;;;;;;;;;;4865096;29;20049;-74
2022/07/15 14:23:00;;;;;;;2.92;1.80;;;;;;;;;;4880221;29;20192;-73
2022/07/15 14:25:25;;;;;;;2.70;1.65;;;;;;;;;;4879053;29;20076;-74
2022/07/15 14:27:52;;;;;;;2.40;1.58;;;;;;;;;;4884984;29;20538;-73
2022/07/15 14:30:18;;;;;;;3.17;1.50;;;;;;;;;;4882096;29;20100;-74
2022/07/15 14:32:43;;;;;;;2.85;1.65;;;;;;;;;;4879771;29;20113;-74
2022/07/15 14:35:09;;;;;;;1.83;1.48;;;;;;;;;;4879081;29;20041;-74
2022/07/15 14:37:35;;;;;;;1.73;1.63;;;;;;;;;;4879624;29;20053;-73
2022/07/15 14:40:02;;;;;;;2.08;1.83;;;;;;;;;;4879681;29;20577;-74
2022/07/15 14:42:29;;;;;;;1.67;1.55;;;;;;;;;;4879574;29;20060;-74
2022/07/15 14:44:55;;;;;;;1.85;1.60;;;;;;;;;;4878848;29;20041;-75
2022/07/15 14:47:21;;;;;;;3.05;1.75;;;;;;;;;;4878596;29;20053;-75
2022/07/15 14:49:47;;;;;;;7.90;1.50;;;;;;;;;;4846280;29;20074;-74
2022/07/15 14:52:13;;;;;;;2.13;1.50;;;;;;;;;;4878455;29;20087;-73
2022/07/15 14:54:39;;;;;;;3.38;1.30;;;;;;;;;;4861859;29;20502;-75
2022/07/15 14:57:06;;;;;;;2.80;1.50;;;;;;;;;;4877650;29;20041;-74
2022/07/15 14:59:32;;;;;;;2.53;1.80;;;;;;;;;;4847087;29;20060;-74
2022/07/15 15:01:58;;;;;;;4.00;1.95;;;;;;;;;;4878599;29;20049;-74
2022/07/15 15:04:24;;;;;;;9.65;1.92;;;;;;;;;;4878699;29;20052;-75
2022/07/15 15:06:50;;;;;;;3.00;1.50;;;;;;;;;;4879073;29;20044;-75
2022/07/15 15:09:16;;;;;;;2.10;1.80;;;;;;;;;;4878684;29;20414;-75
2022/07/15 15:11:42;;;;;;;2.90;2.10;;;;;;;;;;4878896;29;20056;-75
2022/07/15 15:14:08;;;;;;;4.63;2.00;;;;;;;;;;4878495;29;20055;-74
2022/07/15 15:16:34;;;;;;;2.42;1.60;;;;;;;;;;4879004;29;20139;-75
2022/07/15 15:19:00;;;;;;;2.20;1.98;;;;;;;;;;4878049;29;20045;-74